Terminal Aerodrome Forecast
Issued by NWS Bismarck, ND

Home | Current Version | Previous Version | Graphics & Text | Print | Product List | Glossary On
Versions: 1 2 3 4 5 6 7 8 9 10 11 12 13 14
282
FTUS43 KBIS 250527
TAFISN
TAF
KISN 250527Z 2506/2606 32025G35KT 3SM -SHRA SCT015 BKN035
     FM250900 32024G34KT P6SM VCSH BKN045
     FM251200 31021G30KT P6SM SCT120
     FM260100 31009KT P6SM FEW250=

USA.gov is the U.S. government's official web portal to all federal, state and local government web resources and services.